ACA744 YSSY-CYVR
Flight info
| Callsign | ACA744 |
|---|---|
| Flight time | N/A |
| Altitude | 29000 |
| Route | NOBAR B474 BEADS DCT 2919S15556E/N0496F310 2545S15930E 2350S16127E 2237S16300E 2008S16600E 1712S16929E 1551S17055E 1125S17500E 0740S17807E/N0499F330 0507S17950W 0500S17944W 0155S17715W 0144N17410W 0504N17107W 0802N16830W 0937N16704W 1344N16246W/N0487F350 1603N16014W 1724N15840W 1923N15618W 2155N15338W 2302N15235W 2310N15227W 2633N14920W 3029N14526W 3117N14435W 3348N14200W/N0471F370 3740N13808W 4120N13448W 4543N13010W DCT SHARI DCT PEKAA SHARK4 |
| Aircraft | B77W/H-SDE1E2E3FGHIJ2J3J4J5M1RWXY/LB1D1 |
Departure
| Time | N/A |
|---|---|
| Airport | Sydney Kingsford Smith International Airport (YSSY) |
Arrival
| Time | 2026-04-30 20:02 |
|---|---|
| Airport | Vancouver International Airport (CYVR) |
| Time | Latitude | Longitude | Altitude | Speed | Heading |
|---|---|---|---|---|---|
| 2026-04-30 19:27 | 48.48533 | -126.16105 | 37220 ft | 496 kts | 55° |
| 2026-04-30 19:28 | 48.50381 | -126.11728 | 37212 ft | 491 kts | 56° |
| 2026-04-30 19:28 | 48.54022 | -126.03101 | 36488 ft | 482 kts | 56° |
| 2026-04-30 19:29 | 48.57629 | -125.94696 | 35647 ft | 472 kts | 55° |
| 2026-04-30 19:29 | 48.59392 | -125.90616 | 35215 ft | 467 kts | 55° |
| 2026-04-30 19:30 | 48.64662 | -125.78416 | 33892 ft | 456 kts | 55° |
| 2026-04-30 19:30 | 48.68095 | -125.70438 | 32986 ft | 448 kts | 56° |
| 2026-04-30 19:31 | 48.71453 | -125.62605 | 32144 ft | 439 kts | 56° |
| 2026-04-30 19:31 | 48.73107 | -125.58735 | 31728 ft | 435 kts | 55° |
| 2026-04-30 19:31 | 48.76347 | -125.51138 | 30907 ft | 428 kts | 55° |
| 2026-04-30 19:32 | 48.77958 | -125.47355 | 30508 ft | 425 kts | 55° |
| 2026-04-30 19:32 | 48.79553 | -125.43604 | 30076 ft | 422 kts | 55° |
| 2026-04-30 19:32 | 48.81137 | -125.39874 | 29624 ft | 418 kts | 54° |
| 2026-04-30 19:32 | 48.82706 | -125.36180 | 29190 ft | 414 kts | 56° |
| 2026-04-30 19:33 | 48.84259 | -125.32511 | 28774 ft | 410 kts | 56° |
| 2026-04-30 19:33 | 48.85796 | -125.28873 | 28359 ft | 407 kts | 56° |
| 2026-04-30 19:33 | 48.87318 | -125.25269 | 27945 ft | 403 kts | 56° |
| 2026-04-30 19:33 | 48.88825 | -125.21694 | 27538 ft | 400 kts | 56° |
| 2026-04-30 19:34 | 48.90318 | -125.18149 | 27147 ft | 397 kts | 56° |
| 2026-04-30 19:34 | 48.91800 | -125.14624 | 26747 ft | 394 kts | 55° |
| 2026-04-30 19:34 | 48.94712 | -125.07690 | 25973 ft | 389 kts | 55° |
| 2026-04-30 19:35 | 48.96163 | -125.04227 | 25590 ft | 386 kts | 56° |
| 2026-04-30 19:35 | 48.97605 | -125.00783 | 25210 ft | 385 kts | 56° |
| 2026-04-30 19:35 | 48.99037 | -124.97355 | 24825 ft | 383 kts | 56° |
| 2026-04-30 19:35 | 49.00458 | -124.93947 | 24436 ft | 381 kts | 56° |
| 2026-04-30 19:36 | 49.01876 | -124.90550 | 24071 ft | 379 kts | 56° |
| 2026-04-30 19:36 | 49.03288 | -124.87156 | 23638 ft | 379 kts | 56° |
| 2026-04-30 19:36 | 49.06001 | -124.80329 | 22803 ft | 372 kts | 68° |
| 2026-04-30 19:37 | 49.06548 | -124.76527 | 22413 ft | 364 kts | 89° |
| 2026-04-30 19:37 | 49.06589 | -124.72740 | 22071 ft | 361 kts | 91° |
| 2026-04-30 19:37 | 49.06616 | -124.68920 | 21696 ft | 359 kts | 91° |
| 2026-04-30 19:37 | 49.06646 | -124.65120 | 21323 ft | 358 kts | 92° |
| 2026-04-30 19:38 | 49.06682 | -124.61328 | 20950 ft | 355 kts | 92° |
| 2026-04-30 19:38 | 49.06722 | -124.57566 | 20593 ft | 353 kts | 92° |
| 2026-04-30 19:38 | 49.06768 | -124.53831 | 20215 ft | 351 kts | 92° |
| 2026-04-30 19:38 | 49.06814 | -124.50122 | 19823 ft | 350 kts | 92° |
| 2026-04-30 19:39 | 49.06861 | -124.46417 | 19491 ft | 349 kts | 92° |
| 2026-04-30 19:39 | 49.06905 | -124.42698 | 19075 ft | 351 kts | 92° |
| 2026-04-30 19:39 | 49.06950 | -124.39024 | 18730 ft | 350 kts | 92° |
| 2026-04-30 19:39 | 49.06994 | -124.35313 | 18321 ft | 349 kts | 92° |
| 2026-04-30 19:40 | 49.07035 | -124.31626 | 17892 ft | 344 kts | 92° |
| 2026-04-30 19:40 | 49.07075 | -124.28011 | 17505 ft | 340 kts | 92° |
| 2026-04-30 19:40 | 49.07113 | -124.24402 | 17006 ft | 340 kts | 92° |
| 2026-04-30 19:40 | 49.07150 | -124.20805 | 16601 ft | 338 kts | 92° |
| 2026-04-30 19:41 | 49.07186 | -124.17228 | 16216 ft | 337 kts | 92° |
| 2026-04-30 19:41 | 49.07222 | -124.13680 | 15833 ft | 333 kts | 92° |
| 2026-04-30 19:41 | 49.07257 | -124.10163 | 15470 ft | 330 kts | 91° |
| 2026-04-30 19:41 | 49.07292 | -124.06680 | 15125 ft | 327 kts | 92° |
| 2026-04-30 19:42 | 49.07321 | -124.03228 | 14756 ft | 324 kts | 92° |
| 2026-04-30 19:42 | 49.07351 | -123.99810 | 14426 ft | 321 kts | 91° |
| 2026-04-30 19:42 | 49.07380 | -123.96416 | 14061 ft | 321 kts | 91° |
| 2026-04-30 19:42 | 49.07415 | -123.93065 | 13682 ft | 319 kts | 91° |
| 2026-04-30 19:43 | 49.07452 | -123.89693 | 13328 ft | 317 kts | 91° |
| 2026-04-30 19:43 | 49.07491 | -123.86322 | 12945 ft | 316 kts | 91° |
| 2026-04-30 19:43 | 49.07525 | -123.82984 | 12585 ft | 314 kts | 91° |
| 2026-04-30 19:44 | 49.07593 | -123.76379 | 11997 ft | 309 kts | 91° |
| 2026-04-30 19:44 | 49.07622 | -123.73079 | 12022 ft | 313 kts | 91° |
| 2026-04-30 19:44 | 49.07651 | -123.69755 | 12014 ft | 313 kts | 91° |
| 2026-04-30 19:44 | 49.07682 | -123.66468 | 11998 ft | 306 kts | 91° |
| 2026-04-30 19:45 | 49.07709 | -123.63258 | 11994 ft | 301 kts | 91° |
| 2026-04-30 19:45 | 49.07734 | -123.60073 | 11989 ft | 299 kts | 91° |
| 2026-04-30 19:45 | 49.07758 | -123.56938 | 11999 ft | 299 kts | 91° |
| 2026-04-30 19:45 | 49.07781 | -123.53805 | 11987 ft | 292 kts | 91° |
| 2026-04-30 19:46 | 49.07805 | -123.50736 | 11992 ft | 289 kts | 91° |
| 2026-04-30 19:46 | 49.07818 | -123.49096 | 11995 ft | 288 kts | 91° |
| 2026-04-30 19:46 | 49.07839 | -123.46045 | 12001 ft | 288 kts | 91° |
| 2026-04-30 19:46 | 49.07860 | -123.42982 | 12004 ft | 287 kts | 91° |
| 2026-04-30 19:47 | 49.07879 | -123.39977 | 11987 ft | 279 kts | 92° |
| 2026-04-30 19:47 | 49.07880 | -123.38027 | 12026 ft | 278 kts | 92° |
| 2026-04-30 19:47 | 49.07855 | -123.34060 | 12007 ft | 280 kts | 93° |
| 2026-04-30 19:47 | 49.07832 | -123.31098 | 11719 ft | 279 kts | 93° |
| 2026-04-30 19:48 | 49.07814 | -123.28141 | 11395 ft | 277 kts | 92° |
| 2026-04-30 19:48 | 49.07798 | -123.25239 | 11130 ft | 270 kts | 92° |
| 2026-04-30 19:48 | 49.07784 | -123.22415 | 10801 ft | 264 kts | 92° |
| 2026-04-30 19:48 | 49.07766 | -123.19634 | 10362 ft | 261 kts | 93° |
| 2026-04-30 19:49 | 49.07748 | -123.16872 | 9912 ft | 259 kts | 92° |
| 2026-04-30 19:49 | 49.07712 | -123.11523 | 9305 ft | 244 kts | 93° |
| 2026-04-30 19:49 | 49.07693 | -123.08967 | 8974 ft | 239 kts | 93° |
| 2026-04-30 19:50 | 49.07674 | -123.06475 | 8541 ft | 238 kts | 93° |
| 2026-04-30 19:50 | 49.07653 | -123.03961 | 8132 ft | 235 kts | 93° |
| 2026-04-30 19:50 | 49.07632 | -123.01478 | 7726 ft | 234 kts | 92° |
| 2026-04-30 19:50 | 49.07614 | -122.99006 | 7314 ft | 233 kts | 93° |
| 2026-04-30 19:51 | 49.07594 | -122.96541 | 6881 ft | 232 kts | 93° |
| 2026-04-30 19:51 | 49.07577 | -122.94084 | 6473 ft | 231 kts | 93° |
| 2026-04-30 19:51 | 49.07554 | -122.91647 | 6048 ft | 229 kts | 93° |
| 2026-04-30 19:51 | 49.07529 | -122.89226 | 5642 ft | 227 kts | 93° |
| 2026-04-30 19:52 | 49.07506 | -122.86812 | 5230 ft | 227 kts | 92° |
| 2026-04-30 19:52 | 49.07485 | -122.84413 | 4853 ft | 225 kts | 93° |
| 2026-04-30 19:52 | 49.07461 | -122.82057 | 4624 ft | 218 kts | 93° |
| 2026-04-30 19:52 | 49.07407 | -122.79763 | 4504 ft | 221 kts | 100° |
| 2026-04-30 19:53 | 49.06780 | -122.77654 | 4383 ft | 219 kts | 133° |
| 2026-04-30 19:53 | 49.05508 | -122.76473 | 4373 ft | 215 kts | 161° |
| 2026-04-30 19:53 | 49.04201 | -122.75411 | 4380 ft | 217 kts | 138° |
| 2026-04-30 19:53 | 49.03468 | -122.73393 | 4373 ft | 224 kts | 104° |
| 2026-04-30 19:54 | 49.03603 | -122.71027 | 4376 ft | 230 kts | 70° |
| 2026-04-30 19:54 | 49.04571 | -122.69092 | 4379 ft | 234 kts | 38° |
| 2026-04-30 19:54 | 49.06080 | -122.68200 | 4367 ft | 233 kts | 8° |
| 2026-04-30 19:54 | 49.07679 | -122.67975 | 4392 ft | 228 kts | 1° |
| 2026-04-30 19:55 | 49.09210 | -122.68521 | 4347 ft | 230 kts | 329° |
| 2026-04-30 19:55 | 49.10319 | -122.70231 | 4344 ft | 229 kts | 301° |
| 2026-04-30 19:55 | 49.11093 | -122.72354 | 4271 ft | 229 kts | 296° |
| 2026-04-30 19:55 | 49.11827 | -122.74507 | 4177 ft | 228 kts | 295° |
| 2026-04-30 19:56 | 49.12532 | -122.76600 | 4070 ft | 214 kts | 295° |
| 2026-04-30 19:56 | 49.13201 | -122.78568 | 4008 ft | 204 kts | 295° |
| 2026-04-30 19:56 | 49.13849 | -122.80470 | 3971 ft | 203 kts | 295° |
| 2026-04-30 19:56 | 49.14457 | -122.82419 | 3988 ft | 205 kts | 288° |
| 2026-04-30 19:57 | 49.14808 | -122.84543 | 3979 ft | 207 kts | 281° |
| 2026-04-30 19:57 | 49.15098 | -122.86704 | 3810 ft | 208 kts | 280° |
| 2026-04-30 19:57 | 49.15356 | -122.88827 | 3527 ft | 196 kts | 279° |
| 2026-04-30 19:57 | 49.15585 | -122.90817 | 3313 ft | 184 kts | 279° |
| 2026-04-30 19:58 | 49.15805 | -122.92728 | 3068 ft | 180 kts | 279° |
| 2026-04-30 19:58 | 49.16018 | -122.94597 | 2819 ft | 178 kts | 280° |
| 2026-04-30 19:58 | 49.16232 | -122.96464 | 2596 ft | 179 kts | 279° |
| 2026-04-30 19:58 | 49.16445 | -122.98333 | 2359 ft | 178 kts | 280° |
| 2026-04-30 19:59 | 49.16656 | -123.00186 | 2115 ft | 176 kts | 280° |
| 2026-04-30 19:59 | 49.16795 | -123.01403 | 1965 ft | 175 kts | 279° |
| 2026-04-30 19:59 | 49.17274 | -123.05585 | 1401 ft | 159 kts | 279° |
| 2026-04-30 20:00 | 49.17463 | -123.07160 | 1198 ft | 143 kts | 280° |
| 2026-04-30 20:00 | 49.17575 | -123.08153 | 1065 ft | 137 kts | 279° |
| 2026-04-30 20:00 | 49.17711 | -123.09547 | 905 ft | 132 kts | 276° |
| 2026-04-30 20:00 | 49.17881 | -123.10925 | 728 ft | 134 kts | 280° |
| 2026-04-30 20:01 | 49.18205 | -123.13715 | 322 ft | 127 kts | 277° |
| 2026-04-30 20:01 | 49.18346 | -123.15006 | 164 ft | 127 kts | 278° |
| 2026-04-30 20:01 | 49.18500 | -123.16346 | 55 ft | 130 kts | 279° |
| 2026-04-30 20:02 | 49.18741 | -123.18448 | 30 ft | 58 kts | 279° |
| 2026-04-30 20:02 | 49.18786 | -123.18829 | 30 ft | 17 kts | 280° |
| 2026-04-30 20:03 | 49.18914 | -123.19601 | 30 ft | 42 kts | 309° |
| 2026-04-30 20:03 | 49.19106 | -123.19847 | 30 ft | 32 kts | 352° |
| 2026-04-30 20:03 | 49.19269 | -123.19702 | 30 ft | 22 kts | 65° |
| 2026-04-30 20:03 | 49.19313 | -123.19402 | 30 ft | 30 kts | 79° |
| 2026-04-30 20:04 | 49.19351 | -123.19092 | 29 ft | 30 kts | 79° |
| 2026-04-30 20:04 | 49.19399 | -123.18785 | 30 ft | 30 kts | 56° |
| 2026-04-30 20:04 | 49.19594 | -123.18706 | 29 ft | 30 kts | 10° |
| 2026-04-30 20:05 | 49.19710 | -123.18560 | 30 ft | 1 kts | 92° |
| 2026-04-30 20:05 | 49.19708 | -123.18523 | 30 ft | 9 kts | 96° |
| 2026-04-30 20:05 | 49.19685 | -123.18321 | 30 ft | 10 kts | 100° |
| 2026-04-30 20:06 | 49.19664 | -123.18219 | 29 ft | 10 kts | 123° |
| 2026-04-30 20:06 | 49.19626 | -123.18145 | 29 ft | 7 kts | 134° |
| 2026-04-30 20:06 | 49.19628 | -123.18116 | 29 ft | 3 kts | 59° |
| 2026-04-30 20:06 | 49.19639 | -123.18090 | 29 ft | 0 kts | 58° |
| 2026-04-30 20:07 | 49.19639 | -123.18086 | 29 ft | 0 kts | 66° |
| 2026-04-30 20:07 | 49.19639 | -123.18081 | 29 ft | 0 kts | 79° |
| 2026-04-30 20:07 | 49.19633 | -123.18074 | 29 ft | 0 kts | 150° |
| 2026-04-30 20:08 | 49.19629 | -123.18072 | 29 ft | 1 kts | 160° |
| 2026-04-30 20:08 | 49.19619 | -123.18067 | 29 ft | 2 kts | 159° |
| 2026-04-30 20:08 | 49.19605 | -123.18057 | 29 ft | 3 kts | 152° |
| 2026-04-30 20:08 | 49.19598 | -123.18052 | 29 ft | 0 kts | 153° |
| 2026-04-30 20:09 | 49.19594 | -123.18049 | 29 ft | 1 kts | 154° |
| 2026-04-30 20:09 | 49.19583 | -123.18041 | 29 ft | 2 kts | 155° |
| 2026-04-30 20:09 | 49.19574 | -123.18035 | 29 ft | 0 kts | 154° |
| 2026-04-30 20:10 | 49.19574 | -123.18034 | 29 ft | 0 kts | 154° |